Map

Track Data

SID SEASON NUMBER BASIN SUBBASIN NAME ISO_TIME NATURE LAT LON WMO_WIND WMO_PRES WMO_AGENCY TRACK_TYPE DIST2LAND LANDFALL IFLAG USA_AGENCY USA_ATCF_ID USA_LAT USA_LON USA_RECORD USA_STATUS USA_WIND USA_PRES USA_SSHS USA_R34_NE USA_R34_SE USA_R34_SW USA_R34_NW USA_R50_NE USA_R50_SE USA_R50_SW USA_R50_NW USA_R64_NE USA_R64_SE USA_R64_SW USA_R64_NW USA_POCI USA_ROCI USA_RMW USA_EYE TOKYO_LAT TOKYO_LON TOKYO_GRADE TOKYO_WIND TOKYO_PRES TOKYO_R50_DIR TOKYO_R50_LONG TOKYO_R50_SHORT TOKYO_R30_DIR TOKYO_R30_LONG TOKYO_R30_SHORT TOKYO_LAND CMA_LAT CMA_LON CMA_CAT CMA_WIND CMA_PRES HKO_LAT HKO_LON HKO_CAT HKO_WIND HKO_PRES NEWDELHI_LAT NEWDELHI_LON NEWDELHI_GRADE NEWDELHI_WIND NEWDELHI_PRES NEWDELHI_CI NEWDELHI_DP NEWDELHI_POCI REUNION_LAT REUNION_LON REUNION_TYPE REUNION_WIND REUNION_PRES REUNION_TNUM REUNION_CI REUNION_RMW REUNION_R34_NE REUNION_R34_SE REUNION_R34_SW REUNION_R34_NW REUNION_R50_NE REUNION_R50_SE REUNION_R50_SW REUNION_R50_NW REUNION_R64_NE REUNION_R64_SE REUNION_R64_SW REUNION_R64_NW BOM_LAT BOM_LON BOM_TYPE BOM_WIND BOM_PRES BOM_TNUM BOM_CI BOM_RMW BOM_R34_NE BOM_R34_SE BOM_R34_SW BOM_R34_NW BOM_R50_NE BOM_R50_SE BOM_R50_SW BOM_R50_NW BOM_R64_NE BOM_R64_SE BOM_R64_SW BOM_R64_NW BOM_ROCI BOM_POCI BOM_EYE BOM_POS_METHOD BOM_PRES_METHOD NADI_LAT NADI_LON NADI_CAT NADI_WIND NADI_PRES WELLINGTON_LAT WELLINGTON_LON WELLINGTON_WIND WELLINGTON_PRES DS824_LAT DS824_LON DS824_STAGE DS824_WIND DS824_PRES TD9636_LAT TD9636_LON TD9636_STAGE TD9636_WIND TD9636_PRES TD9635_LAT TD9635_LON TD9635_WIND TD9635_PRES TD9635_ROCI NEUMANN_LAT NEUMANN_LON NEUMANN_CLASS NEUMANN_WIND NEUMANN_PRES MLC_LAT MLC_LON MLC_CLASS MLC_WIND MLC_PRES USA_GUST BOM_GUST BOM_GUST_PER REUNION_GUST REUNION_GUST_PER USA_SEAHGT USA_SEARAD_NE USA_SEARAD_SE USA_SEARAD_SW USA_SEARAD_NW STORM_SPEED STORM_DIR
1880052S11089 1880 3 SI MM NOT_NAMED 1880-02-21 06:00:00 NR -11.2000 89.1000 main 1518 1518 _____O________ -1 -11.2000 89.1000 99 9.90000 6 231
1880052S11089 1880 3 SI MM NOT_NAMED 1880-02-21 09:00:00 NR -11.4035 88.8458 main 1557 1557 _____P________ -1 -11.4035 88.8458 99 6 231
1880052S11089 1880 3 SI MM NOT_NAMED 1880-02-21 12:00:00 NR -11.6041 88.5954 main 1588 1588 _____P________ -1 -11.6041 88.5954 99 6 231
1880052S11089 1880 3 SI MM NOT_NAMED 1880-02-21 15:00:00 NR -11.7992 88.3526 main 1619 1619 _____P________ -1 -11.7992 88.3526 99 4 222
1880052S11089 1880 3 SI MM NOT_NAMED 1880-02-21 18:00:00 NR -11.8889 88.3374 main 1635 1635 _____P____O___ -1 -11.9861 88.1218 99 -11.5000 89.2000 7 3 212
1880052S11089 1880 3 SI MM NOT_NAMED 1880-02-21 21:00:00 NR -12.0626 88.1869 main 1658 1658 _____P____P___ -1 -12.1623 87.9070 99 -11.8633 88.7467 7 5 223
1880052S11089 1880 3 SI MM NOT_NAMED 1880-02-22 00:00:00 NR -12.2719 87.9744 main 1689 1689 _____P____P___ -1 -12.3251 87.7123 99 -12.2009 88.3240 7 6 225
1880052S11089 1880 3 SI MM NOT_NAMED 1880-02-22 03:00:00 NR -12.4799 87.7531 main 1721 1721 _____P____P___ -1 -12.4718 87.5419 99 -12.4881 87.9643 7 6 228
1880052S11089 1880 3 SI MM NOT_NAMED 1880-02-22 06:00:00 NR -12.6500 87.5500 main 1744 1744 _____O____O___ -1 -12.6000 87.4000 99 9.90000 -12.7000 87.7000 7 4 229
1880052S11089 1880 3 SI MM NOT_NAMED 1880-02-22 09:00:00 NR -12.7647 87.4206 main 1775 1775 _____P____P___ -1 -12.7079 87.2892 99 -12.8215 87.5520 7 3 226
1880052S11089 1880 3 SI MM NOT_NAMED 1880-02-22 12:00:00 NR -12.8360 87.3502 main 1775 1775 _____P____P___ -1 -12.7974 87.2059 99 -12.8746 87.4944 7 2 221
1880052S11089 1880 3 SI MM NOT_NAMED 1880-02-22 15:00:00 NR -12.8808 87.3174 main 1791 1791 _____P____P___ -1 -12.8711 87.1451 99 -12.8904 87.4897 7 1 205
1880052S11089 1880 3 SI MM NOT_NAMED 1880-02-22 18:00:00 NR -12.9160 87.3009 main 1791 1791 _____P____O___ -1 -12.9320 87.1018 99 -12.9000 87.5000 7 1 208
1880052S11089 1880 3 SI MM NOT_NAMED 1880-02-22 21:00:00 NR -12.9663 87.2733 main 1799 1799 _____P____P___ -1 -12.9826 87.0707 99 -12.9500 87.4759 7 1 202
1880052S11089 1880 3 SI MM NOT_NAMED 1880-02-23 00:00:00 NR -13.0128 87.2521 main 1799 1799 _____P____P___ -1 -13.0256 87.0468 99 -13.0000 87.4575 7 1 201
1880052S11089 1880 3 SI MM NOT_NAMED 1880-02-23 03:00:00 NR -13.0569 87.2301 main 1814 1814 _____P____P___ -1 -13.0639 87.0249 99 -13.0500 87.4353 7 1 214
1880052S11089 1880 3 SI MM NOT_NAMED 1880-02-23 06:00:00 NR -13.1000 87.2000 main 1814 1814 _____O____O___ -1 -13.1000 87.0000 99 9.90000 -13.1000 87.4000 7 1 223
1880052S11089 1880 3 SI MM NOT_NAMED 1880-02-23 09:00:00 NR -13.1485 87.1417 main 1822 1822 _____P____P___ -1 -13.1430 86.9481 99 -13.1541 87.3353 7 2 232
1880052S11089 1880 3 SI MM NOT_NAMED 1880-02-23 12:00:00 NR -13.1944 87.0767 main 1830 1830 _____P____P___ -1 -13.1812 86.8959 99 -13.2075 87.2575 7 2 236
1880052S11089 1880 3 SI MM NOT_NAMED 1880-02-23 15:00:00 NR -13.2368 87.0099 main 1837 1837 _____P____P___ -1 -13.2164 86.8439 99 -13.2572 87.1760 7 2 237
1880052S11089 1880 3 SI MM NOT_NAMED 1880-02-23 18:00:00 NR -13.2750 86.9462 main 1853 1853 _____P____O___ -1 -13.2500 86.7924 99 -13.3000 87.1000 7 1 238
1880052S11089 1880 3 SI MM NOT_NAMED 1880-02-23 21:00:00 NR -13.3059 86.8923 main 1853 1853 _____P____P___ -1 -13.2836 86.7419 99 -13.3281 87.0428 7 1 238
1880052S11089 1880 3 SI MM NOT_NAMED 1880-02-24 00:00:00 NR -13.3344 86.8426 main 1861 1861 _____P____P___ -1 -13.3188 86.6928 99 -13.3500 86.9925 7 1 238
1880052S11089 1880 3 SI MM NOT_NAMED 1880-02-24 03:00:00 NR -13.3644 86.7956 main 1869 1869 _____P____P___ -1 -13.3570 86.6453 99 -13.3719 86.9459 7 1 234
1880052S11089 1880 3 SI MM NOT_NAMED 1880-02-24 06:00:00 NR -13.4000 86.7500 main 1869 1869 _____O____O___ -1 -13.4000 86.6000 99 9.90000 -13.4000 86.9000 7 1 228
1880052S11089 1880 3 SI MM NOT_NAMED 1880-02-24 09:00:00 NR -13.4490 86.7029 main 1876 1876 _____P____P___ -1 -13.4551 86.5598 99 -13.4428 86.8459 7 1 221
1880052S11089 1880 3 SI MM NOT_NAMED 1880-02-24 12:00:00 NR -13.5036 86.6572 main 1884 1884 _____P____P___ -1 -13.5147 86.5219 99 -13.4925 86.7925 7 1 218
1880052S11089 1880 3 SI MM NOT_NAMED 1880-02-24 15:00:00 NR -13.5617 86.6142 main 1900 1900 _____P____P___ -1 -13.5775 86.4855 99 -13.5459 86.7428 7 1 214
1880052S11089 1880 3 SI MM NOT_NAMED 1880-02-24 18:00:00 NR -13.6212 86.5750 main 1900 1900 _____P____O___ -1 -13.6425 86.4500 99 -13.6000 86.7000 7 1 213
1880052S11089 1880 3 SI MM NOT_NAMED 1880-02-24 21:00:00 NR -13.6771 86.5452 main 1915 1915 _____P____P___ -1 -13.7084 86.4144 99 -13.6459 86.6759 7 1 206
1880052S11089 1880 3 SI MM NOT_NAMED 1880-02-25 00:00:00 NR -13.7333 86.5178 main 1915 1915 _____P____P___ -1 -13.7740 86.3781 99 -13.6925 86.6575 7 1 205
1880052S11089 1880 3 SI MM NOT_NAMED 1880-02-25 03:00:00 NR -13.7906 86.4877 main 1923 1923 _____P____P___ -1 -13.8383 86.3402 99 -13.7428 86.6353 7 1 212
1880052S11089 1880 3 SI MM NOT_NAMED 1880-02-25 06:00:00 NR -13.8500 86.4500 main 1923 1939 _____O____O___ -1 -13.9000 86.3000 99 9.90000 -13.8000 86.6000 7 2 217
1880052S11089 1880 3 SI MM NOT_NAMED 1880-02-25 09:00:00 NR -13.9094 86.3939 main 1939 1939 _____P____P___ -1 -13.9470 86.2565 99 -13.8719 86.5313 7 2 224
1880052S11089 1880 3 SI MM NOT_NAMED 1880-02-25 12:00:00 NR -13.9705 86.3306 main 1954 1954 _____P____P___ -1 -13.9909 86.2112 99 -13.9500 86.4501 7 2 225
1880052S11089 1880 3 SI MM NOT_NAMED 1880-02-25 15:00:00 NR -14.0310 86.2664 main 1954 1954 _____P____P___ -1 -14.0338 86.1639 99 -14.0281 86.3688 7 2 225
1880052S11089 1880 3 SI MM NOT_NAMED 1880-02-25 18:00:00 NR -14.0887 86.2074 main 1970 1970 _____P____O___ -1 -14.0775 86.1149 99 -14.1000 86.3000 7 1 222
1880052S11089 1880 3 SI MM NOT_NAMED 1880-02-25 21:00:00 NR -14.1365 86.1643 main 1970 1970 _____P____P___ -1 -14.1240 86.0639 99 -14.1490 86.2646 7 1 220
1880052S11089 1880 3 SI MM NOT_NAMED 1880-02-26 00:00:00 NR -14.1839 86.1268 main 1985 1985 _____P____P___ -1 -14.1753 86.0111 99 -14.1925 86.2424 7 1 213
1880052S11089 1880 3 SI MM NOT_NAMED 1880-02-26 03:00:00 NR -14.2365 86.0903 main 1985 1985 _____P____P___ -1 -14.2333 85.9565 99 -14.2397 86.2240 7 1 216
1880052S11089 1880 3 SI MM NOT_NAMED 1880-02-26 06:00:00 NR -14.3000 86.0500 main 1993 1993 _____O____O___ -1 -14.3000 85.9000 99 9.90000 -14.3000 86.2000 7 2 207
1880052S11089 1880 3 SI MM NOT_NAMED 1880-02-26 09:00:00 NR -14.3817 86.0045 main 2008 2008 _____P____P___ -1 -14.3737 85.8478 99 -14.3897 86.1613 7 2 206
1880052S11089 1880 3 SI MM NOT_NAMED 1880-02-26 12:00:00 NR -14.4737 85.9546 main 2016 2016 _____P____P___ -1 -14.4550 85.7942 99 -14.4925 86.1150 7 2 209
1880052S11089 1880 3 SI MM NOT_NAMED 1880-02-26 15:00:00 NR -14.5714 85.8998 main 2032 2032 _____P____P___ -1 -14.5437 85.7384 99 -14.5991 86.0612 7 2 210
1880052S11089 1880 3 SI MM NOT_NAMED 1880-02-26 18:00:00 NR -14.6700 85.8399 main 2047 2047 _____P____O___ -1 -14.6399 85.6797 99 -14.7000 86.0000 7 2 211
1880052S11089 1880 3 SI MM NOT_NAMED 1880-02-26 21:00:00 NR -14.7659 85.7744 main 2055 2055 _____P____P___ -1 -14.7437 85.6173 99 -14.7881 85.9316 7 2 219
1880052S11089 1880 3 SI MM NOT_NAMED 1880-02-27 00:00:00 NR -14.8593 85.6820 main 2071 2071 _____P____P___ -1 -14.8549 85.5504 99 -14.8650 85.8575 7 3 224
1880052S11089 1880 3 SI MM NOT_NAMED 1880-02-27 03:00:00 NR -14.9606 85.5787 main 2086 2086 _____P____P___ -1 -14.9737 85.4782 99 -14.9344 85.7797 7 3 224
1880052S11089 1880 3 SI MM NOT_NAMED 1880-02-27 06:00:00 NR -15.0800 85.4600 main 2102 2102 _____O____O___ -1 -15.1000 85.4000 99 9.90000 -15.0000 85.7000 7 4 223
1880052S11089 1880 3 SI MM NOT_NAMED 1880-02-27 09:00:00 NR -15.2337 85.3152 main 2125 2125 _____P________ -1 -15.2337 85.3152 99 7 4 218
1880052S11089 1880 3 SI MM NOT_NAMED 1880-02-27 12:00:00 NR -15.3739 85.2245 main 2148 2148 _____P________ -1 -15.3739 85.2245 99 7 3 212
1880052S11089 1880 3 SI MM NOT_NAMED 1880-02-27 15:00:00 NR -15.5197 85.1285 main 2164 2164 _____P________ -1 -15.5197 85.1285 99 7 4 213
1880052S11089 1880 3 SI MM NOT_NAMED 1880-02-27 18:00:00 NR -15.6702 85.0282 main 2187 2187 _____P________ -1 -15.6702 85.0282 99 4 213
1880052S11089 1880 3 SI MM NOT_NAMED 1880-02-27 21:00:00 NR -15.8245 84.9244 main 2202 2202 _____P________ -1 -15.8245 84.9244 99 4 213
1880052S11089 1880 3 SI MM NOT_NAMED 1880-02-28 00:00:00 NR -15.9815 84.8178 main 2226 2226 _____P________ -1 -15.9815 84.8178 99 4 213
1880052S11089 1880 3 SI MM NOT_NAMED 1880-02-28 03:00:00 NR -16.1403 84.7094 main 2241 2241 _____P________ -1 -16.1403 84.7094 99 4 213
1880052S11089 1880 3 SI MM NOT_NAMED 1880-02-28 06:00:00 NR -16.3000 84.6000 main 2264 _____O________ -1 -16.3000 84.6000 99 9.90000 4 213

About IBTrACS Database

This database is a web-friendly format of International Best Track Archive for Climate Stewardship (IBTrACS), a global best track data archive curated by NOAA dating back to 1842.

Updated: 2021-12-01